Time;durP1;ratioP1;P1;durP2;ratioP2;P2;SDS_P1;SDS_P2;PMS_P1;PMS_P2;Temp;Humidity;BMP_temperature;BMP_pressure;BME280_temperature;BME280_humidity;BME280_pressure;Samples;Min_cycle;Max_cycle;Signal;HPM_P1;HPM_P2
2022/01/19 00:03:45;;;;;;;30.33;12.43;;;;;;;;;;8430168;28;20055;-75
2022/01/19 00:07:49;;;;;;;31.40;13.35;;;;;;;;;;8430689;28;20044;-74
2022/01/19 00:11:52;;;;;;;30.42;12.43;;;;;;;;;;8430581;28;20476;-74
2022/01/19 00:15:54;;;;;;;36.65;16.77;;;;;;;;;;8430488;28;20079;-73
2022/01/19 00:19:57;;;;;;;34.17;12.50;;;;;;;;;;8430811;28;20063;-74
2022/01/19 00:24:01;;;;;;;36.17;12.13;;;;;;;;;;8430886;28;20059;-74
2022/01/19 00:28:04;;;;;;;29.48;10.32;;;;;;;;;;8429896;28;20052;-75
2022/01/19 00:32:07;;;;;;;28.75;10.18;;;;;;;;;;8430730;28;20126;-75
2022/01/19 00:36:09;;;;;;;26.30;10.98;;;;;;;;;;8430665;28;20510;-74
2022/01/19 00:40:14;;;;;;;29.00;9.52;;;;;;;;;;8430069;28;20051;-74
2022/01/19 00:44:17;;;;;;;23.25;9.40;;;;;;;;;;8430936;28;20044;-74
2022/01/19 00:48:19;;;;;;;23.60;9.40;;;;;;;;;;8430447;28;20044;-73
2022/01/19 00:52:22;;;;;;;28.63;10.05;;;;;;;;;;8429900;28;20044;-74
2022/01/19 00:56:27;;;;;;;25.15;8.93;;;;;;;;;;8430205;28;20054;-77
2022/01/19 01:00:30;;;;;;;29.33;9.50;;;;;;;;;;8430259;28;20515;-73
2022/01/19 01:04:33;;;;;;;23.60;9.35;;;;;;;;;;8430124;28;20051;-74
2022/01/19 01:08:36;;;;;;;25.00;8.95;;;;;;;;;;8429668;28;20400;-77
2022/01/19 01:12:46;;;;;;;23.45;10.05;;;;;;;;;;8429522;28;20052;-73
2022/01/19 01:21:20;;;;;;;25.33;9.18;;;;;;;;;;8357660;28;20492;-76
2022/01/19 01:25:23;;;;;;;28.73;9.95;;;;;;;;;;8435615;28;20040;-74
2022/01/19 01:29:26;;;;;;;24.90;8.50;;;;;;;;;;8435409;28;20055;-73
2022/01/19 01:33:29;;;;;;;26.90;8.43;;;;;;;;;;8435359;28;20044;-73
2022/01/19 01:37:32;;;;;;;22.88;8.60;;;;;;;;;;8435311;28;20048;-74
2022/01/19 01:41:34;;;;;;;30.95;9.15;;;;;;;;;;8435680;28;20399;-74
2022/01/19 01:45:42;;;;;;;26.83;9.05;;;;;;;;;;8435491;28;20407;-74
2022/01/19 01:53:25;;;;;;;21.67;7.82;;;;;;;;;;8435038;28;20047;-73
2022/01/19 01:54:07;;;;;;;20.42;8.32;;;;;;;;;;8435192;28;20048;-73
2022/01/19 01:58:10;;;;;;;25.00;7.95;;;;;;;;;;8435554;28;20418;-73
2022/01/19 02:02:15;;;;;;;26.25;8.57;;;;;;;;;;8434474;28;20064;-73
2022/01/19 02:06:32;;;;;;;24.10;8.60;;;;;;;;;;8435323;28;20067;-74
2022/01/19 02:10:41;;;;;;;29.80;9.00;;;;;;;;;;8434784;28;20044;-75
2022/01/19 02:23:33;;;;;;;26.10;8.65;;;;;;;;;;8411511;28;20499;-76
2022/01/19 02:40:35;;;;;;;27.67;8.70;;;;;;;;;;8431474;28;20097;-74
2022/01/19 02:49:15;;;;;;;26.88;9.55;;;;;;;;;;8433358;28;20067;-74
2022/01/19 02:53:18;;;;;;;31.02;9.75;;;;;;;;;;8432840;28;20047;-73
2022/01/19 02:57:25;;;;;;;26.30;8.85;;;;;;;;;;8433457;28;20064;-74
2022/01/19 03:10:08;;;;;;;56.97;17.45;;;;;;;;;;8432341;28;20055;-74
2022/01/19 03:14:12;;;;;;;24.98;10.63;;;;;;;;;;8432349;28;20056;-75
2022/01/19 03:18:14;;;;;;;31.08;11.10;;;;;;;;;;8432485;28;20485;-75
2022/01/19 03:22:18;;;;;;;28.38;10.38;;;;;;;;;;8431872;28;20047;-74
2022/01/19 03:26:21;;;;;;;23.65;9.65;;;;;;;;;;8431939;28;20039;-74
2022/01/19 03:30:25;;;;;;;31.13;10.00;;;;;;;;;;8432156;28;20047;-75
2022/01/19 03:34:28;;;;;;;24.73;9.40;;;;;;;;;;8432413;28;20068;-73
2022/01/19 03:38:31;;;;;;;23.90;9.40;;;;;;;;;;8430662;28;20051;-74
2022/01/19 03:42:33;;;;;;;22.48;8.25;;;;;;;;;;8432239;28;20044;-74
2022/01/19 03:46:46;;;;;;;24.30;8.05;;;;;;;;;;8431235;28;20044;-76
2022/01/19 03:50:48;;;;;;;18.38;7.53;;;;;;;;;;8431106;28;20050;-76
2022/01/19 03:54:51;;;;;;;22.40;7.93;;;;;;;;;;8430880;28;20074;-74
2022/01/19 03:58:53;;;;;;;18.02;8.55;;;;;;;;;;8431342;28;20069;-75
2022/01/19 04:02:58;;;;;;;21.92;8.38;;;;;;;;;;8431098;28;20048;-74
2022/01/19 04:07:07;;;;;;;24.98;7.60;;;;;;;;;;8430648;28;20079;-73
2022/01/19 04:11:10;;;;;;;23.80;7.43;;;;;;;;;;8430589;28;20050;-74
2022/01/19 04:15:14;;;;;;;17.88;8.85;;;;;;;;;;8430338;28;20048;-76
2022/01/19 04:19:29;;;;;;;20.70;7.95;;;;;;;;;;8430492;28;20044;-74
2022/01/19 04:23:32;;;;;;;20.55;7.03;;;;;;;;;;8430471;28;20557;-74
2022/01/19 04:27:36;;;;;;;19.67;8.40;;;;;;;;;;8430226;28;20051;-73
2022/01/19 04:31:38;;;;;;;13.65;6.22;;;;;;;;;;8430675;28;20154;-73
2022/01/19 04:35:49;;;;;;;19.17;7.05;;;;;;;;;;8430501;28;20055;-76
2022/01/19 05:01:59;;;;;;;51.55;13.63;;;;;;;;;;8493370;28;20040;-74
2022/01/19 05:06:07;;;;;;;34.67;9.85;;;;;;;;;;8493533;28;20485;-74
2022/01/19 05:14:29;;;;;;;24.55;8.40;;;;;;;;;;8492071;28;20047;-74
2022/01/19 05:18:32;;;;;;;34.50;11.07;;;;;;;;;;8492795;28;20044;-75
2022/01/19 05:22:36;;;;;;;28.30;8.80;;;;;;;;;;8493087;28;20040;-76
2022/01/19 05:26:39;;;;;;;50.90;15.98;;;;;;;;;;8492953;28;20078;-73
2022/01/19 05:30:41;;;;;;;30.98;10.98;;;;;;;;;;8492902;28;20066;-74
2022/01/19 05:34:44;;;;;;;51.80;20.25;;;;;;;;;;8492185;28;20063;-74
2022/01/19 05:38:48;;;;;;;75.45;25.27;;;;;;;;;;8492133;28;20058;-73
2022/01/19 05:42:51;;;;;;;35.88;10.70;;;;;;;;;;8491934;28;20044;-74
2022/01/19 05:46:53;;;;;;;22.98;10.10;;;;;;;;;;8491542;28;20138;-74
2022/01/19 05:50:56;;;;;;;24.85;9.98;;;;;;;;;;8491785;28;20509;-75
2022/01/19 05:55:00;;;;;;;23.70;11.52;;;;;;;;;;8492073;28;20380;-75
2022/01/19 05:59:03;;;;;;;26.63;9.82;;;;;;;;;;8474378;28;20089;-74
2022/01/19 06:03:05;;;;;;;29.15;13.10;;;;;;;;;;8469208;28;20044;-74
2022/01/19 06:07:07;;;;;;;28.40;10.68;;;;;;;;;;8468514;28;20043;-73
2022/01/19 06:11:12;;;;;;;23.08;11.20;;;;;;;;;;8468449;28;20411;-73
2022/01/19 06:15:15;;;;;;;48.40;17.58;;;;;;;;;;8468389;28;20035;-74
2022/01/19 06:19:19;;;;;;;;;;;;;;;;;;8469170;28;20067;-72
2022/01/19 06:23:22;;;;;;;54.05;17.45;;;;;;;;;;8468611;28;19919;-75
2022/01/19 06:27:26;;;;;;;34.70;12.18;;;;;;;;;;8468285;28;20056;-74
2022/01/19 06:31:28;;;;;;;24.17;9.45;;;;;;;;;;8468142;28;20044;-74
2022/01/19 06:35:31;;;;;;;26.23;10.90;;;;;;;;;;8467567;28;20055;-74
2022/01/19 06:39:33;;;;;;;25.05;10.77;;;;;;;;;;8468080;28;20395;-74
2022/01/19 06:43:38;;;;;;;29.15;11.73;;;;;;;;;;8467423;28;20071;-75
2022/01/19 06:47:41;;;;;;;31.02;11.50;;;;;;;;;;8466835;28;20048;-74
2022/01/19 06:51:43;;;;;;;28.60;11.55;;;;;;;;;;8467486;28;20130;-73
2022/01/19 06:55:46;;;;;;;34.53;14.88;;;;;;;;;;8467396;28;20483;-74
2022/01/19 06:59:51;;;;;;;42.55;17.70;;;;;;;;;;8467290;28;20506;-74
2022/01/19 07:03:54;;;;;;;30.38;13.93;;;;;;;;;;8466674;28;20051;-75
2022/01/19 07:07:57;;;;;;;62.67;24.35;;;;;;;;;;8466727;28;20471;-74
2022/01/19 07:11:59;;;;;;;28.42;11.23;;;;;;;;;;8466300;28;20047;-75
2022/01/19 07:16:04;;;;;;;30.30;12.13;;;;;;;;;;8466280;28;20050;-76
2022/01/19 07:20:07;;;;;;;23.08;10.60;;;;;;;;;;8466631;28;20506;-73
2022/01/19 07:24:12;;;;;;;27.75;11.95;;;;;;;;;;8466077;28;20048;-74
2022/01/19 07:28:15;;;;;;;26.50;11.70;;;;;;;;;;8466753;28;20444;-73
2022/01/19 07:32:20;;;;;;;26.83;11.38;;;;;;;;;;8465721;28;20092;-74
2022/01/19 07:36:22;;;;;;;25.75;11.15;;;;;;;;;;8465578;28;20077;-73
2022/01/19 07:40:25;;;;;;;25.38;11.35;;;;;;;;;;8465939;28;20097;-74
2022/01/19 07:44:28;;;;;;;21.63;11.30;;;;;;;;;;8465830;28;20491;-76
2022/01/19 07:48:32;;;;;;;27.73;13.40;;;;;;;;;;8465125;28;20495;-76
2022/01/19 07:52:34;;;;;;;79.72;34.80;;;;;;;;;;8465615;28;20047;-73
2022/01/19 07:56:37;;;;;;;45.35;16.23;;;;;;;;;;8465544;28;20067;-74
2022/01/19 08:00:42;;;;;;;47.65;19.88;;;;;;;;;;8465418;28;20471;-75
2022/01/19 08:04:46;;;;;;;48.65;18.85;;;;;;;;;;8465331;28;20054;-73
2022/01/19 08:08:49;;;;;;;38.08;14.30;;;;;;;;;;8464688;28;20126;-75
2022/01/19 08:12:52;;;;;;;30.40;13.70;;;;;;;;;;8464584;28;20218;-74
2022/01/19 08:16:56;;;;;;;52.17;19.00;;;;;;;;;;8464862;28;20078;-75
2022/01/19 08:21:01;;;;;;;35.53;17.50;;;;;;;;;;8464133;28;20047;-74
2022/01/19 08:25:05;;;;;;;55.08;17.85;;;;;;;;;;8464219;28;20415;-74
2022/01/19 08:29:09;;;;;;;62.55;26.77;;;;;;;;;;8464037;28;20050;-73
2022/01/19 08:33:13;;;;;;;37.55;15.57;;;;;;;;;;8464521;28;20539;-73
2022/01/19 08:37:17;;;;;;;28.10;13.18;;;;;;;;;;8463923;28;20048;-74
2022/01/19 08:41:19;;;;;;;29.55;12.55;;;;;;;;;;8443272;28;20427;-74
2022/01/19 08:45:23;;;;;;;34.83;14.13;;;;;;;;;;8429383;28;20048;-75
2022/01/19 08:49:26;;;;;;;29.60;13.23;;;;;;;;;;8429898;28;20468;-74
2022/01/19 08:53:30;;;;;;;29.33;12.38;;;;;;;;;;8429131;28;20062;-73
2022/01/19 08:57:36;;;;;;;24.60;11.98;;;;;;;;;;8461465;28;20043;-74
2022/01/19 09:01:39;;;;;;;28.58;11.63;;;;;;;;;;8464218;28;20482;-73
2022/01/19 09:05:43;;;;;;;46.90;19.33;;;;;;;;;;8462977;28;20086;-73
2022/01/19 09:09:52;;;;;;;45.28;21.80;;;;;;;;;;8462887;28;20047;-76
2022/01/19 09:13:55;;;;;;;46.40;21.27;;;;;;;;;;8445164;28;20466;-75
2022/01/19 09:17:59;;;;;;;23.35;10.43;;;;;;;;;;8462892;28;20047;-74
2022/01/19 09:22:03;;;;;;;30.65;13.75;;;;;;;;;;8463006;28;20055;-76
2022/01/19 09:26:09;;;;;;;31.75;16.83;;;;;;;;;;8462828;28;20058;-73
2022/01/19 09:30:16;;;;;;;30.73;13.75;;;;;;;;;;8463158;28;20480;-73
2022/01/19 09:34:23;;;;;;;37.78;17.20;;;;;;;;;;8467014;28;20044;-74
2022/01/19 09:38:31;;;;;;;32.70;17.38;;;;;;;;;;8468552;28;20146;-74
2022/01/19 09:42:36;;;;;;;27.15;11.60;;;;;;;;;;8468750;28;20486;-74
2022/01/19 09:46:39;;;;;;;29.60;14.70;;;;;;;;;;8468406;28;20052;-75
2022/01/19 09:50:42;;;;;;;36.38;19.15;;;;;;;;;;8468324;28;20044;-74
2022/01/19 09:54:44;;;;;;;21.17;10.18;;;;;;;;;;8468511;28;20048;-76
2022/01/19 09:58:49;;;;;;;26.42;10.93;;;;;;;;;;8468770;28;20040;-75
2022/01/19 10:03:15;;;;;;;24.35;10.43;;;;;;;;;;8468333;28;20039;-75
2022/01/19 10:07:23;;;;;;;21.58;10.48;;;;;;;;;;8467753;28;20465;-75
2022/01/19 10:16:58;;;;;;;26.92;10.70;;;;;;;;;;8467770;28;20043;-75
2022/01/19 10:20:27;;;;;;;20.77;10.35;;;;;;;;;;8433749;28;20051;-74
2022/01/19 10:24:47;;;;;;;26.58;11.27;;;;;;;;;;8416254;28;20051;-75
2022/01/19 10:29:04;;;;;;;29.02;12.93;;;;;;;;;;8433520;28;20055;-74
2022/01/19 10:33:18;;;;;;;30.00;12.35;;;;;;;;;;8433802;28;20091;-74
2022/01/19 10:37:32;;;;;;;29.70;11.68;;;;;;;;;;8433802;28;20040;-76
2022/01/19 10:42:00;;;;;;;23.60;11.43;;;;;;;;;;8432923;28;20499;-75
2022/01/19 10:46:25;;;;;;;21.60;11.02;;;;;;;;;;8432857;28;20052;-74
2022/01/19 10:50:34;;;;;;;23.60;11.45;;;;;;;;;;8432674;28;20127;-75
2022/01/19 10:54:40;;;;;;;28.15;11.70;;;;;;;;;;8432941;28;20106;-74
2022/01/19 10:58:56;;;;;;;25.17;11.15;;;;;;;;;;8432738;28;20041;-75
2022/01/19 11:03:17;;;;;;;30.75;14.32;;;;;;;;;;8432417;28;20411;-75
2022/01/19 11:07:23;;;;;;;;;;;;;;;;;;8432929;27;20036;-74
2022/01/19 11:11:27;;;;;;;24.17;11.00;;;;;;;;;;8432234;28;19920;-75
2022/01/19 11:15:30;;;;;;;26.15;12.80;;;;;;;;;;8432142;28;20048;-76
2022/01/19 11:19:38;;;;;;;39.00;17.23;;;;;;;;;;8431792;28;20044;-74
2022/01/19 11:23:52;;;;;;;34.75;15.68;;;;;;;;;;8432071;28;20487;-74
2022/01/19 11:27:56;;;;;;;28.75;13.73;;;;;;;;;;8432158;28;20051;-75
2022/01/19 11:32:00;;;;;;;29.83;12.27;;;;;;;;;;8431381;28;20044;-74
2022/01/19 11:36:08;;;;;;;31.50;13.05;;;;;;;;;;8431767;28;20136;-77
2022/01/19 11:40:16;;;;;;;39.83;15.88;;;;;;;;;;8431937;28;20054;-75
2022/01/19 11:44:37;;;;;;;24.45;11.45;;;;;;;;;;8431888;28;20048;-74
2022/01/19 11:48:47;;;;;;;88.07;28.90;;;;;;;;;;8430742;28;20381;-74
2022/01/19 11:53:08;;;;;;;62.15;23.30;;;;;;;;;;8431088;28;20047;-74
2022/01/19 11:57:17;;;;;;;33.15;13.48;;;;;;;;;;8431012;28;20056;-75
2022/01/19 12:01:24;;;;;;;23.17;10.98;;;;;;;;;;8430582;28;20503;-73
2022/01/19 12:05:31;;;;;;;27.90;11.70;;;;;;;;;;8431263;28;20471;-74
2022/01/19 12:09:56;;;;;;;28.42;12.25;;;;;;;;;;8431094;28;20052;-76
2022/01/19 12:14:11;;;;;;;34.50;14.02;;;;;;;;;;8431096;28;20066;-75
2022/01/19 12:18:39;;;;;;;91.65;34.97;;;;;;;;;;8430112;28;20044;-74
2022/01/19 12:22:47;;;;;;;32.90;12.65;;;;;;;;;;8430383;28;20051;-75
2022/01/19 12:27:00;;;;;;;24.13;11.60;;;;;;;;;;8430459;28;20131;-75
2022/01/19 12:31:33;;;;;;;28.80;12.27;;;;;;;;;;8429543;28;20072;-75
2022/01/19 12:35:39;;;;;;;25.38;12.40;;;;;;;;;;8430540;28;20396;-75
2022/01/19 12:39:44;;;;;;;36.03;17.33;;;;;;;;;;8429838;28;20097;-73
2022/01/19 12:43:47;;;;;;;29.27;14.43;;;;;;;;;;8430174;28;20048;-74
2022/01/19 12:47:53;;;;;;;32.67;13.18;;;;;;;;;;8435091;28;20560;-74
2022/01/19 12:51:56;;;;;;;26.80;13.18;;;;;;;;;;8445415;28;20093;-74
2022/01/19 12:56:00;;;;;;;29.13;13.48;;;;;;;;;;8434101;28;20040;-73
2022/01/19 13:00:07;;;;;;;34.20;15.45;;;;;;;;;;8429905;28;20048;-75
2022/01/19 13:04:22;;;;;;;28.45;12.57;;;;;;;;;;8429850;28;20552;-75
2022/01/19 13:08:29;;;;;;;41.30;17.65;;;;;;;;;;8432792;28;20044;-75
2022/01/19 13:12:42;;;;;;;20.52;10.88;;;;;;;;;;8436314;28;20072;-76
2022/01/19 13:16:49;;;;;;;29.40;14.13;;;;;;;;;;8435937;28;20093;-76
2022/01/19 13:20:56;;;;;;;37.67;16.10;;;;;;;;;;8438342;27;20040;-75
2022/01/19 13:25:01;;;;;;;46.15;21.17;;;;;;;;;;8470038;28;20454;-74
2022/01/19 13:29:14;;;;;;;55.17;22.17;;;;;;;;;;8469131;28;20048;-75
2022/01/19 13:33:18;;;;;;;42.10;17.23;;;;;;;;;;8469429;28;20103;-75
2022/01/19 13:37:24;;;;;;;29.88;13.20;;;;;;;;;;8469469;28;20084;-76
2022/01/19 13:41:33;;;;;;;42.10;18.83;;;;;;;;;;8469006;28;20479;-75
2022/01/19 13:45:48;;;;;;;30.27;12.27;;;;;;;;;;8468579;28;20051;-75
2022/01/19 13:49:54;;;;;;;35.08;16.00;;;;;;;;;;8468717;28;20048;-76
2022/01/19 13:54:03;;;;;;;41.88;19.63;;;;;;;;;;8469116;28;20044;-75
2022/01/19 13:58:10;;;;;;;40.60;17.13;;;;;;;;;;8468197;28;20483;-75
2022/01/19 14:02:17;;;;;;;49.90;23.75;;;;;;;;;;8468960;28;20067;-75
2022/01/19 14:06:23;;;;;;;51.05;19.83;;;;;;;;;;8468399;28;20066;-74
2022/01/19 14:10:27;;;;;;;30.05;13.82;;;;;;;;;;8468633;28;20057;-74
2022/01/19 14:14:35;;;;;;;53.13;24.38;;;;;;;;;;8468166;28;20467;-74
2022/01/19 14:18:38;;;;;;;54.80;22.70;;;;;;;;;;8467217;28;20074;-73
2022/01/19 14:22:41;;;;;;;42.20;17.73;;;;;;;;;;8468383;28;20043;-74
2022/01/19 14:26:52;;;;;;;35.30;16.23;;;;;;;;;;8468291;28;20498;-76
2022/01/19 14:31:03;;;;;;;33.30;15.77;;;;;;;;;;8501777;27;20055;-74
2022/01/19 14:35:20;;;;;;;46.53;22.20;;;;;;;;;;8502682;27;20043;-73
2022/01/19 14:39:23;;;;;;;37.75;17.95;;;;;;;;;;8501644;27;20043;-75
2022/01/19 14:43:37;;;;;;;34.83;14.40;;;;;;;;;;8501268;27;20043;-77
2022/01/19 14:47:40;;;;;;;42.40;17.83;;;;;;;;;;8500872;27;20054;-74
2022/01/19 14:51:44;;;;;;;53.33;23.67;;;;;;;;;;8496751;27;20039;-75
2022/01/19 14:55:48;;;;;;;75.97;32.40;;;;;;;;;;8455434;28;20040;-76
2022/01/19 14:59:52;;;;;;;31.08;14.88;;;;;;;;;;8451835;28;20052;-76
2022/01/19 15:03:55;;;;;;;32.75;14.32;;;;;;;;;;8442353;28;20052;-75
2022/01/19 15:07:58;;;;;;;27.30;14.77;;;;;;;;;;8435741;28;20051;-74
2022/01/19 15:12:01;;;;;;;30.40;14.40;;;;;;;;;;8441826;28;20044;-76
2022/01/19 15:16:06;;;;;;;32.70;14.55;;;;;;;;;;8444018;28;20052;-74
2022/01/19 15:20:11;;;;;;;41.97;16.30;;;;;;;;;;8443963;28;20047;-76
2022/01/19 15:24:14;;;;;;;33.90;16.80;;;;;;;;;;8434156;28;20048;-74
2022/01/19 15:28:17;;;;;;;41.72;19.60;;;;;;;;;;8439868;28;20117;-74
2022/01/19 15:32:22;;;;;;;31.75;13.40;;;;;;;;;;8442679;28;20048;-72
2022/01/19 15:36:25;;;;;;;39.60;14.77;;;;;;;;;;8442537;28;20048;-73
2022/01/19 15:40:28;;;;;;;37.47;15.93;;;;;;;;;;8438276;28;20451;-74
2022/01/19 15:44:31;;;;;;;30.33;11.90;;;;;;;;;;8436421;28;20048;-72
2022/01/19 15:48:35;;;;;;;36.63;13.52;;;;;;;;;;8419501;28;20064;-73
2022/01/19 15:52:39;;;;;;;80.72;37.20;;;;;;;;;;8442339;28;20128;-75
2022/01/19 15:56:44;;;;;;;64.53;33.42;;;;;;;;;;8440509;28;20039;-75
2022/01/19 16:00:49;;;;;;;37.65;14.55;;;;;;;;;;8434472;28;20044;-75
2022/01/19 16:04:53;;;;;;;65.78;31.10;;;;;;;;;;8438764;28;20051;-74
2022/01/19 16:08:56;;;;;;;53.83;19.67;;;;;;;;;;8441771;28;20093;-73
2022/01/19 16:13:02;;;;;;;44.88;19.38;;;;;;;;;;8438687;28;20127;-74
2022/01/19 16:17:08;;;;;;;35.53;17.05;;;;;;;;;;8415631;28;20051;-73
2022/01/19 16:21:21;;;;;;;37.05;15.23;;;;;;;;;;8440266;27;20413;-74
2022/01/19 16:29:45;;;;;;;37.67;16.10;;;;;;;;;;8441175;28;20054;-75
2022/01/19 16:33:49;;;;;;;37.40;16.05;;;;;;;;;;8434466;28;20380;-73
2022/01/19 16:37:54;;;;;;;39.95;18.73;;;;;;;;;;8429862;28;20048;-73
2022/01/19 16:42:04;;;;;;;42.63;17.52;;;;;;;;;;8439081;28;20047;-75
2022/01/19 16:46:06;;;;;;;40.42;19.02;;;;;;;;;;8417348;28;20059;-74
2022/01/19 16:50:11;;;;;;;85.93;31.13;;;;;;;;;;8448904;28;20089;-74
2022/01/19 16:54:16;;;;;;;73.15;30.42;;;;;;;;;;8436897;28;20074;-73
2022/01/19 16:58:19;;;;;;;74.13;27.90;;;;;;;;;;8434046;28;20117;-76
2022/01/19 17:02:22;;;;;;;111.68;39.13;;;;;;;;;;8433149;28;20036;-73
2022/01/19 17:06:25;;;;;;;83.78;27.65;;;;;;;;;;8432594;28;20062;-75
2022/01/19 17:10:30;;;;;;;68.28;24.60;;;;;;;;;;8425279;28;20086;-74
2022/01/19 17:14:38;;;;;;;93.93;31.38;;;;;;;;;;8434324;28;20048;-74
2022/01/19 17:18:43;;;;;;;95.63;37.50;;;;;;;;;;8450171;28;20043;-74
2022/01/19 17:22:46;;;;;;;93.70;34.22;;;;;;;;;;8445248;28;20130;-75
2022/01/19 17:26:56;;;;;;;66.93;29.60;;;;;;;;;;8411947;28;20135;-72
2022/01/19 17:31:00;;;;;;;85.10;32.60;;;;;;;;;;8431877;28;20052;-76
2022/01/19 17:35:04;;;;;;;147.10;57.03;;;;;;;;;;8452244;28;20104;-73
2022/01/19 17:39:08;;;;;;;116.88;47.03;;;;;;;;;;8461915;28;20069;-73
2022/01/19 17:43:18;;;;;;;73.50;32.58;;;;;;;;;;8463019;28;20110;-74
2022/01/19 17:47:30;;;;;;;61.25;25.45;;;;;;;;;;8462822;28;20079;-75
2022/01/19 17:51:40;;;;;;;77.43;30.77;;;;;;;;;;8463237;28;20048;-75
2022/01/19 17:55:44;;;;;;;91.38;35.10;;;;;;;;;;8467467;28;20396;-74
2022/01/19 17:59:53;;;;;;;84.22;31.73;;;;;;;;;;8468714;28;20475;-74
2022/01/19 18:03:58;;;;;;;68.53;23.88;;;;;;;;;;8468758;28;20051;-74
2022/01/19 18:08:07;;;;;;;71.53;28.75;;;;;;;;;;8468582;28;20044;-73
2022/01/19 18:12:11;;;;;;;52.20;23.38;;;;;;;;;;8468482;28;20054;-75
2022/01/19 18:16:19;;;;;;;63.75;28.50;;;;;;;;;;8467288;28;20047;-75
2022/01/19 18:20:24;;;;;;;74.55;28.20;;;;;;;;;;8467597;28;20039;-74
2022/01/19 18:24:27;;;;;;;77.75;29.00;;;;;;;;;;8468114;28;20097;-74
2022/01/19 18:28:31;;;;;;;68.40;27.33;;;;;;;;;;8467729;28;20071;-76
2022/01/19 18:32:37;;;;;;;63.58;24.02;;;;;;;;;;8467791;28;20138;-75
2022/01/19 18:36:40;;;;;;;54.20;20.85;;;;;;;;;;8467428;28;20051;-75
2022/01/19 18:40:43;;;;;;;59.88;21.50;;;;;;;;;;8467546;28;20122;-74
2022/01/19 18:44:49;;;;;;;63.67;22.95;;;;;;;;;;8467320;28;20639;-75
2022/01/19 18:48:54;;;;;;;50.22;19.80;;;;;;;;;;8467527;28;20097;-75
2022/01/19 18:52:59;;;;;;;58.40;20.67;;;;;;;;;;8467232;28;20540;-74
2022/01/19 18:57:06;;;;;;;48.40;20.40;;;;;;;;;;8467604;28;20070;-74
2022/01/19 19:01:11;;;;;;;66.63;24.55;;;;;;;;;;8466897;28;20130;-75
2022/01/19 19:05:17;;;;;;;69.47;24.88;;;;;;;;;;8466723;28;20087;-74
2022/01/19 19:09:23;;;;;;;50.33;20.73;;;;;;;;;;8466344;28;20422;-75
2022/01/19 19:13:27;;;;;;;49.20;19.25;;;;;;;;;;8467096;28;20134;-74
2022/01/19 19:17:32;;;;;;;52.70;22.45;;;;;;;;;;8445270;28;20453;-73
2022/01/19 19:21:38;;;;;;;43.42;16.05;;;;;;;;;;8460039;28;20069;-76
2022/01/19 19:25:43;;;;;;;50.67;22.08;;;;;;;;;;8464446;28;20043;-75
2022/01/19 19:29:49;;;;;;;45.75;20.70;;;;;;;;;;8464548;28;20147;-75
2022/01/19 19:33:57;;;;;;;47.85;16.52;;;;;;;;;;8465266;28;20059;-73
2022/01/19 19:38:08;;;;;;;57.28;21.15;;;;;;;;;;8465158;28;20040;-75
2022/01/19 19:42:25;;;;;;;55.22;20.77;;;;;;;;;;8465016;28;20104;-75
2022/01/19 19:46:43;;;;;;;56.08;23.15;;;;;;;;;;8462851;28;20052;-75
2022/01/19 19:50:58;;;;;;;49.13;21.45;;;;;;;;;;8462785;28;20506;-74
2022/01/19 19:55:13;;;;;;;42.80;19.17;;;;;;;;;;8463988;28;20531;-75
2022/01/19 19:59:20;;;;;;;41.17;16.95;;;;;;;;;;8463595;27;20051;-75
2022/01/19 20:03:24;;;;;;;40.83;16.58;;;;;;;;;;8437760;28;20070;-73
2022/01/19 20:07:35;;;;;;;50.25;17.92;;;;;;;;;;8463253;28;20479;-75
2022/01/19 20:11:41;;;;;;;50.28;19.75;;;;;;;;;;8456542;28;20086;-75
2022/01/19 20:15:44;;;;;;;47.05;18.23;;;;;;;;;;8462170;28;20040;-74
2022/01/19 20:19:48;;;;;;;45.65;21.48;;;;;;;;;;8462086;27;20040;-74
2022/01/19 20:23:52;;;;;;;44.28;20.00;;;;;;;;;;8469284;27;20047;-73
2022/01/19 20:27:56;;;;;;;59.72;23.75;;;;;;;;;;8468397;27;20618;-74
2022/01/19 20:31:59;;;;;;;46.00;17.40;;;;;;;;;;8472851;27;20043;-75
2022/01/19 20:36:03;;;;;;;48.97;18.77;;;;;;;;;;8462571;27;20142;-74
2022/01/19 20:40:10;;;;;;;50.22;18.52;;;;;;;;;;8458872;28;20085;-75
2022/01/19 20:44:15;;;;;;;32.90;14.20;;;;;;;;;;8463550;28;20429;-74
2022/01/19 20:48:18;;;;;;;44.00;17.70;;;;;;;;;;8463164;28;20173;-75
2022/01/19 20:52:21;;;;;;;43.22;20.50;;;;;;;;;;8463171;28;20050;-73
2022/01/19 20:56:24;;;;;;;41.45;17.05;;;;;;;;;;8463784;28;20039;-73
2022/01/19 21:00:29;;;;;;;45.92;19.95;;;;;;;;;;8463697;28;20410;-74
2022/01/19 21:04:32;;;;;;;51.03;18.95;;;;;;;;;;8464119;28;20483;-76
2022/01/19 21:08:35;;;;;;;52.30;22.42;;;;;;;;;;8463758;28;20093;-74
2022/01/19 21:12:41;;;;;;;57.70;22.92;;;;;;;;;;8463579;28;20039;-75
2022/01/19 21:16:49;;;;;;;95.03;31.75;;;;;;;;;;8463991;28;20055;-74
2022/01/19 21:20:52;;;;;;;74.82;26.50;;;;;;;;;;8464421;28;20051;-74
2022/01/19 21:24:55;;;;;;;115.15;36.88;;;;;;;;;;8463296;28;20067;-74
2022/01/19 21:28:58;;;;;;;66.95;23.80;;;;;;;;;;8465471;28;20043;-74
2022/01/19 21:33:03;;;;;;;104.75;34.13;;;;;;;;;;8469843;28;20040;-74
2022/01/19 21:37:07;;;;;;;56.03;20.27;;;;;;;;;;8469622;28;20043;-74
2022/01/19 21:41:09;;;;;;;133.60;43.28;;;;;;;;;;8469601;28;20050;-76
2022/01/19 21:45:13;;;;;;;76.65;26.67;;;;;;;;;;8469179;28;20051;-74
2022/01/19 21:49:17;;;;;;;77.22;29.65;;;;;;;;;;8469223;28;20047;-74
2022/01/19 21:53:21;;;;;;;93.55;33.25;;;;;;;;;;8469583;28;20047;-72
2022/01/19 21:57:24;;;;;;;96.55;38.78;;;;;;;;;;8469071;28;20127;-74
2022/01/19 22:01:28;;;;;;;83.78;32.42;;;;;;;;;;8469373;28;20047;-73
2022/01/19 22:05:33;;;;;;;73.63;26.35;;;;;;;;;;8469295;28;20067;-74
2022/01/19 22:09:35;;;;;;;71.30;30.92;;;;;;;;;;8469171;28;20482;-73
2022/01/19 22:13:38;;;;;;;46.83;18.23;;;;;;;;;;8468637;28;20057;-73
2022/01/19 22:17:41;;;;;;;49.70;19.13;;;;;;;;;;8469003;28;20388;-73
2022/01/19 22:21:46;;;;;;;45.50;16.17;;;;;;;;;;8468436;28;20399;-73
2022/01/19 22:25:49;;;;;;;43.47;17.33;;;;;;;;;;8468171;28;20078;-74
2022/01/19 22:29:52;;;;;;;43.10;17.10;;;;;;;;;;8468496;28;20379;-74
2022/01/19 22:33:55;;;;;;;36.08;15.48;;;;;;;;;;8467972;28;20047;-76
2022/01/19 22:37:59;;;;;;;43.25;16.67;;;;;;;;;;8468228;28;20044;-73
2022/01/19 22:42:02;;;;;;;43.17;16.25;;;;;;;;;;8467785;28;20449;-72
2022/01/19 22:46:05;;;;;;;42.03;17.05;;;;;;;;;;8467881;28;20096;-75
2022/01/19 22:50:09;;;;;;;37.80;15.88;;;;;;;;;;8449779;28;20111;-74
2022/01/19 22:54:13;;;;;;;39.10;15.98;;;;;;;;;;8468219;28;20048;-74
2022/01/19 22:58:16;;;;;;;39.33;17.27;;;;;;;;;;8467105;28;20071;-74
2022/01/19 23:02:19;;;;;;;36.13;14.60;;;;;;;;;;8466953;28;20141;-75
2022/01/19 23:06:22;;;;;;;46.55;17.75;;;;;;;;;;8466934;28;20052;-74
2022/01/19 23:10:25;;;;;;;43.42;16.05;;;;;;;;;;8467041;28;20411;-75
2022/01/19 23:14:28;;;;;;;34.20;14.68;;;;;;;;;;8467458;28;20051;-76
2022/01/19 23:18:31;;;;;;;41.65;15.55;;;;;;;;;;8466389;28;20039;-75
2022/01/19 23:22:33;;;;;;;32.85;12.88;;;;;;;;;;8466860;28;20120;-74
2022/01/19 23:26:43;;;;;;;38.15;14.10;;;;;;;;;;8466131;28;20048;-76
2022/01/19 23:30:46;;;;;;;29.60;13.88;;;;;;;;;;8465982;28;20055;-72
2022/01/19 23:34:49;;;;;;;34.55;14.38;;;;;;;;;;8465968;28;20043;-72
2022/01/19 23:38:58;;;;;;;35.28;15.45;;;;;;;;;;8466249;28;20054;-74
2022/01/19 23:51:38;;;;;;;35.55;12.82;;;;;;;;;;8450986;28;20084;-75
2022/01/19 23:55:41;;;;;;;31.90;14.05;;;;;;;;;;8465640;28;20503;-72
2022/01/19 23:59:55;;;;;;;31.83;13.65;;;;;;;;;;8465629;28;20047;-75
